sensor_id;sensor_type;location;lat;lon;timestamp;pressure;altitude;pressure_sealevel;temperature;humidity
15442;BME280;7821;48.818;9.798;2022-10-17T00:00:04;75327.16;;;-140.16;98.15
15442;BME280;7821;48.818;9.798;2022-10-17T00:02:30;75337.03;;;-140.16;98.88
15442;BME280;7821;48.818;9.798;2022-10-17T00:04:57;75331.09;;;-140.16;99.27
15442;BME280;7821;48.818;9.798;2022-10-17T00:07:23;75333.09;;;-140.16;98.27
15442;BME280;7821;48.818;9.798;2022-10-17T00:09:50;75325.19;;;-140.16;96.32
15442;BME280;7821;48.818;9.798;2022-10-17T00:12:16;75333.09;;;-140.16;97.54
15442;BME280;7821;48.818;9.798;2022-10-17T00:14:42;75325.19;;;-140.16;96.52
15442;BME280;7821;48.818;9.798;2022-10-17T00:17:09;75339.00;;;-140.16;96.93
15442;BME280;7821;48.818;9.798;2022-10-17T00:19:35;75335.06;;;-140.16;97.14
15442;BME280;7821;48.818;9.798;2022-10-17T00:22:02;75344.91;;;-140.16;97.16
15442;BME280;7821;48.818;9.798;2022-10-17T00:24:29;75354.78;;;-140.16;98.09
15442;BME280;7821;48.818;9.798;2022-10-17T00:26:55;75344.91;;;-140.16;97.83
15442;BME280;7821;48.818;9.798;2022-10-17T00:29:22;75358.72;;;-140.16;97.07
15442;BME280;7821;48.818;9.798;2022-10-17T00:31:48;75358.72;;;-140.16;97.78
15442;BME280;7821;48.818;9.798;2022-10-17T00:34:14;75364.63;;;-140.16;97.46
15442;BME280;7821;48.818;9.798;2022-10-17T00:36:43;75380.41;;;-140.16;98.66
15442;BME280;7821;48.818;9.798;2022-10-17T00:39:09;75394.19;;;-140.16;98.73
15442;BME280;7821;48.818;9.798;2022-10-17T00:41:37;75408.00;;;-140.16;100.00
15442;BME280;7821;48.818;9.798;2022-10-17T00:44:05;75409.97;;;-140.16;100.00
15442;BME280;7821;48.818;9.798;2022-10-17T00:46:33;75413.91;;;-140.16;100.00
15442;BME280;7821;48.818;9.798;2022-10-17T00:49:01;75423.78;;;-140.16;100.00
15442;BME280;7821;48.818;9.798;2022-10-17T00:51:36;75433.63;;;-140.16;100.00
15442;BME280;7821;48.818;9.798;2022-10-17T00:54:03;75417.88;;;-140.16;100.00
15442;BME280;7821;48.818;9.798;2022-10-17T00:56:30;75421.81;;;-140.16;100.00
15442;BME280;7821;48.818;9.798;2022-10-17T00:58:57;75431.66;;;-140.16;100.00
15442;BME280;7821;48.818;9.798;2022-10-17T01:01:23;75445.47;;;-140.16;100.00
15442;BME280;7821;48.818;9.798;2022-10-17T01:03:50;75449.41;;;-140.16;100.00
15442;BME280;7821;48.818;9.798;2022-10-17T01:06:17;75451.38;;;-140.16;100.00
15442;BME280;7821;48.818;9.798;2022-10-17T01:08:43;75455.31;;;-140.16;100.00
15442;BME280;7821;48.818;9.798;2022-10-17T01:13:54;75447.44;;;-140.16;100.00
15442;BME280;7821;48.818;9.798;2022-10-17T01:19:01;75445.47;;;-140.16;100.00
15442;BME280;7821;48.818;9.798;2022-10-17T01:27:01;75471.09;;;-140.16;100.00
15442;BME280;7821;48.818;9.798;2022-10-17T01:29:51;75475.03;;;-140.16;100.00
15442;BME280;7821;48.818;9.798;2022-10-17T01:32:25;75461.25;;;-140.16;100.00
15442;BME280;7821;48.818;9.798;2022-10-17T01:37:38;75455.31;;;-140.16;100.00
15442;BME280;7821;48.818;9.798;2022-10-17T01:40:08;75463.22;;;-140.16;100.00
15442;BME280;7821;48.818;9.798;2022-10-17T01:45:15;75473.06;;;-140.16;100.00
15442;BME280;7821;48.818;9.798;2022-10-17T01:47:45;75475.03;;;-140.16;100.00
15442;BME280;7821;48.818;9.798;2022-10-17T01:50:14;75471.09;;;-140.16;100.00
15442;BME280;7821;48.818;9.798;2022-10-17T01:52:44;75451.38;;;-140.16;100.00
15442;BME280;7821;48.818;9.798;2022-10-17T01:55:14;75449.41;;;-140.16;100.00
15442;BME280;7821;48.818;9.798;2022-10-17T01:57:54;75459.28;;;-140.16;100.00
15442;BME280;7821;48.818;9.798;2022-10-17T02:00:23;75461.25;;;-140.16;100.00
15442;BME280;7821;48.818;9.798;2022-10-17T02:02:53;75453.34;;;-140.16;100.00
15442;BME280;7821;48.818;9.798;2022-10-17T02:05:23;75469.13;;;-140.16;100.00
15442;BME280;7821;48.818;9.798;2022-10-17T02:07:52;75477.00;;;-140.16;100.00
15442;BME280;7821;48.818;9.798;2022-10-17T02:10:21;75480.97;;;-140.16;100.00
15442;BME280;7821;48.818;9.798;2022-10-17T02:15:27;75496.72;;;-140.16;100.00
15442;BME280;7821;48.818;9.798;2022-10-17T02:18:07;75494.75;;;-140.16;100.00
15442;BME280;7821;48.818;9.798;2022-10-17T02:20:43;75506.59;;;-140.16;100.00
15442;BME280;7821;48.818;9.798;2022-10-17T02:23:22;75500.69;;;-140.16;100.00
15442;BME280;7821;48.818;9.798;2022-10-17T02:25:56;75508.56;;;-140.16;100.00
15442;BME280;7821;48.818;9.798;2022-10-17T02:28:41;75510.53;;;-140.16;100.00
15442;BME280;7821;48.818;9.798;2022-10-17T02:31:12;75504.63;;;-140.16;100.00
15442;BME280;7821;48.818;9.798;2022-10-17T02:33:43;75516.44;;;-140.16;100.00
15442;BME280;7821;48.818;9.798;2022-10-17T02:36:22;75524.34;;;-140.16;100.00
15442;BME280;7821;48.818;9.798;2022-10-17T02:38:49;75510.53;;;-140.16;100.00
15442;BME280;7821;48.818;9.798;2022-10-17T02:41:17;75524.34;;;-140.16;100.00
15442;BME280;7821;48.818;9.798;2022-10-17T02:43:45;75518.41;;;-140.16;100.00
15442;BME280;7821;48.818;9.798;2022-10-17T02:46:13;75500.69;;;-140.16;100.00
15442;BME280;7821;48.818;9.798;2022-10-17T02:48:51;75512.50;;;-140.16;100.00
15442;BME280;7821;48.818;9.798;2022-10-17T02:56:22;75548.00;;;-140.16;100.00
15442;BME280;7821;48.818;9.798;2022-10-17T02:58:51;75536.16;;;-140.16;100.00
15442;BME280;7821;48.818;9.798;2022-10-17T03:01:20;75534.19;;;-140.16;100.00
15442;BME280;7821;48.818;9.798;2022-10-17T03:03:47;75542.09;;;-140.16;100.00
15442;BME280;7821;48.818;9.798;2022-10-17T03:06:13;75563.78;;;-140.16;100.00
15442;BME280;7821;48.818;9.798;2022-10-17T03:08:39;75567.72;;;-140.16;100.00
15442;BME280;7821;48.818;9.798;2022-10-17T03:11:06;75563.78;;;-140.16;100.00
15442;BME280;7821;48.818;9.798;2022-10-17T03:13:32;75577.56;;;-140.16;100.00
15442;BME280;7821;48.818;9.798;2022-10-17T03:16:00;75569.69;;;-140.16;100.00
15442;BME280;7821;48.818;9.798;2022-10-17T03:18:26;75575.59;;;-140.16;100.00
15442;BME280;7821;48.818;9.798;2022-10-17T03:20:58;75569.69;;;-140.16;100.00
15442;BME280;7821;48.818;9.798;2022-10-17T03:23:24;75573.63;;;-140.16;100.00
15442;BME280;7821;48.818;9.798;2022-10-17T03:25:51;75573.63;;;-140.16;100.00
15442;BME280;7821;48.818;9.798;2022-10-17T03:28:17;75585.47;;;-140.16;100.00
15442;BME280;7821;48.818;9.798;2022-10-17T03:30:44;75593.34;;;-140.16;100.00
15442;BME280;7821;48.818;9.798;2022-10-17T03:33:10;75583.50;;;-140.16;100.00
15442;BME280;7821;48.818;9.798;2022-10-17T03:35:37;75579.56;;;-140.16;100.00
15442;BME280;7821;48.818;9.798;2022-10-17T03:38:05;75593.34;;;-140.16;100.00
15442;BME280;7821;48.818;9.798;2022-10-17T03:40:31;75583.50;;;-140.16;100.00
15442;BME280;7821;48.818;9.798;2022-10-17T03:42:57;75583.50;;;-140.16;100.00
15442;BME280;7821;48.818;9.798;2022-10-17T03:45:24;75595.31;;;-140.16;100.00
15442;BME280;7821;48.818;9.798;2022-10-17T03:47:51;75601.25;;;-140.16;100.00
15442;BME280;7821;48.818;9.798;2022-10-17T03:50:17;75595.31;;;-140.16;100.00
15442;BME280;7821;48.818;9.798;2022-10-17T03:52:47;75593.34;;;-140.16;100.00
15442;BME280;7821;48.818;9.798;2022-10-17T03:55:14;75611.09;;;-140.16;100.00
15442;BME280;7821;48.818;9.798;2022-10-17T03:57:41;75624.91;;;-140.16;100.00
15442;BME280;7821;48.818;9.798;2022-10-17T04:00:10;75628.84;;;-140.16;100.00
15442;BME280;7821;48.818;9.798;2022-10-17T04:02:39;75632.78;;;-140.16;100.00
15442;BME280;7821;48.818;9.798;2022-10-17T04:05:08;75634.75;;;-140.16;100.00
15442;BME280;7821;48.818;9.798;2022-10-17T04:07:35;75634.75;;;-140.16;100.00
15442;BME280;7821;48.818;9.798;2022-10-17T04:10:03;75620.97;;;-140.16;100.00
15442;BME280;7821;48.818;9.798;2022-10-17T04:12:30;75634.75;;;-140.16;100.00
15442;BME280;7821;48.818;9.798;2022-10-17T04:14:57;75646.59;;;-140.16;100.00
15442;BME280;7821;48.818;9.798;2022-10-17T04:17:24;75640.69;;;-140.16;100.00
15442;BME280;7821;48.818;9.798;2022-10-17T04:19:51;75626.88;;;-140.16;100.00
15442;BME280;7821;48.818;9.798;2022-10-17T04:22:18;75636.72;;;-140.16;100.00
15442;BME280;7821;48.818;9.798;2022-10-17T04:24:45;75656.44;;;-140.16;100.00
15442;BME280;7821;48.818;9.798;2022-10-17T04:27:32;75658.41;;;-140.16;100.00
15442;BME280;7821;48.818;9.798;2022-10-17T04:29:58;75666.31;;;-140.16;100.00
15442;BME280;7821;48.818;9.798;2022-10-17T04:32:25;75680.13;;;-140.16;100.00
15442;BME280;7821;48.818;9.798;2022-10-17T04:35:02;75678.13;;;-140.16;100.00
15442;BME280;7821;48.818;9.798;2022-10-17T04:37:30;75682.09;;;-140.16;100.00
15442;BME280;7821;48.818;9.798;2022-10-17T04:39:59;75688.00;;;-140.16;100.00
15442;BME280;7821;48.818;9.798;2022-10-17T04:42:29;75689.97;;;-140.16;100.00
15442;BME280;7821;48.818;9.798;2022-10-17T04:44:56;75691.94;;;-140.16;100.00
15442;BME280;7821;48.818;9.798;2022-10-17T04:47:24;75691.94;;;-140.16;100.00
15442;BME280;7821;48.818;9.798;2022-10-17T04:49:50;75684.06;;;-140.16;100.00
15442;BME280;7821;48.818;9.798;2022-10-17T04:52:19;75695.88;;;-140.16;100.00
15442;BME280;7821;48.818;9.798;2022-10-17T04:54:48;75697.84;;;-140.16;100.00
15442;BME280;7821;48.818;9.798;2022-10-17T04:57:14;75699.81;;;-140.16;100.00
15442;BME280;7821;48.818;9.798;2022-10-17T04:59:47;75703.78;;;-140.16;100.00
15442;BME280;7821;48.818;9.798;2022-10-17T05:02:22;75709.69;;;-140.16;100.00
15442;BME280;7821;48.818;9.798;2022-10-17T05:04:49;75707.72;;;-140.16;100.00
15442;BME280;7821;48.818;9.798;2022-10-17T05:07:16;75713.63;;;-140.16;100.00
15442;BME280;7821;48.818;9.798;2022-10-17T05:09:48;75707.72;;;-140.16;100.00
15442;BME280;7821;48.818;9.798;2022-10-17T05:12:16;75684.06;;;-140.16;100.00
15442;BME280;7821;48.818;9.798;2022-10-17T05:14:44;75682.09;;;-140.16;100.00
15442;BME280;7821;48.818;9.798;2022-10-17T05:17:10;75701.81;;;-140.16;100.00
15442;BME280;7821;48.818;9.798;2022-10-17T05:19:37;75709.69;;;-140.16;100.00
15442;BME280;7821;48.818;9.798;2022-10-17T05:22:05;75699.81;;;-140.16;100.00
15442;BME280;7821;48.818;9.798;2022-10-17T05:24:31;75709.69;;;-140.16;100.00
15442;BME280;7821;48.818;9.798;2022-10-17T05:26:58;75719.56;;;-140.16;100.00
15442;BME280;7821;48.818;9.798;2022-10-17T05:29:24;75721.53;;;-140.16;100.00
15442;BME280;7821;48.818;9.798;2022-10-17T05:32:00;75721.53;;;-140.16;100.00
15442;BME280;7821;48.818;9.798;2022-10-17T05:34:27;75723.50;;;-140.16;100.00
15442;BME280;7821;48.818;9.798;2022-10-17T05:36:54;75725.47;;;-140.16;100.00
15442;BME280;7821;48.818;9.798;2022-10-17T05:39:22;75733.34;;;-140.16;100.00
15442;BME280;7821;48.818;9.798;2022-10-17T05:41:50;75729.41;;;-140.16;100.00
15442;BME280;7821;48.818;9.798;2022-10-17T05:44:17;75733.34;;;-140.16;100.00
15442;BME280;7821;48.818;9.798;2022-10-17T05:46:49;75737.28;;;-140.16;100.00
15442;BME280;7821;48.818;9.798;2022-10-17T05:49:15;75733.34;;;-140.16;100.00
15442;BME280;7821;48.818;9.798;2022-10-17T05:51:58;75735.31;;;-140.16;100.00
15442;BME280;7821;48.818;9.798;2022-10-17T05:54:24;75731.38;;;-140.16;100.00
15442;BME280;7821;48.818;9.798;2022-10-17T05:56:52;75729.41;;;-140.16;100.00
15442;BME280;7821;48.818;9.798;2022-10-17T05:59:20;75727.44;;;-140.16;100.00
15442;BME280;7821;48.818;9.798;2022-10-17T06:01:50;75721.53;;;-140.16;100.00
15442;BME280;7821;48.818;9.798;2022-10-17T06:04:16;75721.53;;;-140.16;100.00
15442;BME280;7821;48.818;9.798;2022-10-17T06:06:43;75721.53;;;-140.16;100.00
15442;BME280;7821;48.818;9.798;2022-10-17T06:09:09;75725.47;;;-140.16;100.00
15442;BME280;7821;48.818;9.798;2022-10-17T06:11:40;75717.56;;;-140.16;100.00
15442;BME280;7821;48.818;9.798;2022-10-17T06:14:06;75711.66;;;-140.16;100.00
15442;BME280;7821;48.818;9.798;2022-10-17T06:16:36;75709.69;;;-140.16;100.00
15442;BME280;7821;48.818;9.798;2022-10-17T06:19:02;75705.75;;;-140.16;100.00
15442;BME280;7821;48.818;9.798;2022-10-17T06:21:29;75693.91;;;-140.16;100.00
15442;BME280;7821;48.818;9.798;2022-10-17T06:24:05;75682.09;;;-140.16;100.00
15442;BME280;7821;48.818;9.798;2022-10-17T06:26:36;75674.19;;;-140.16;100.00
15442;BME280;7821;48.818;9.798;2022-10-17T06:29:05;75670.25;;;-140.16;100.00
15442;BME280;7821;48.818;9.798;2022-10-17T06:31:35;75664.34;;;-140.16;100.00
15442;BME280;7821;48.818;9.798;2022-10-17T06:34:02;75658.41;;;-140.16;100.00
15442;BME280;7821;48.818;9.798;2022-10-17T06:36:28;75662.38;;;-140.16;100.00
15442;BME280;7821;48.818;9.798;2022-10-17T06:38:54;75666.31;;;-140.16;100.00
15442;BME280;7821;48.818;9.798;2022-10-17T06:41:28;75666.31;;;-140.16;100.00
15442;BME280;7821;48.818;9.798;2022-10-17T06:44:02;75658.41;;;-140.16;100.00
15442;BME280;7821;48.818;9.798;2022-10-17T06:47:08;75652.50;;;-140.16;100.00
15442;BME280;7821;48.818;9.798;2022-10-17T06:49:35;75638.69;;;-140.16;100.00
15442;BME280;7821;48.818;9.798;2022-10-17T06:52:23;75638.69;;;-140.16;100.00
15442;BME280;7821;48.818;9.798;2022-10-17T06:55:12;75634.75;;;-140.16;100.00
15442;BME280;7821;48.818;9.798;2022-10-17T06:57:55;75632.78;;;-140.16;100.00
15442;BME280;7821;48.818;9.798;2022-10-17T07:00:41;75628.84;;;-140.16;100.00
15442;BME280;7821;48.818;9.798;2022-10-17T07:03:10;75626.88;;;-140.16;100.00
15442;BME280;7821;48.818;9.798;2022-10-17T07:05:37;75613.06;;;-140.16;100.00
15442;BME280;7821;48.818;9.798;2022-10-17T07:08:03;75605.19;;;-140.16;100.00
15442;BME280;7821;48.818;9.798;2022-10-17T07:10:30;75595.31;;;-140.16;100.00
15442;BME280;7821;48.818;9.798;2022-10-17T07:12:56;75577.56;;;-140.16;100.00
15442;BME280;7821;48.818;9.798;2022-10-17T07:15:22;75553.91;;;-140.16;100.00
15442;BME280;7821;48.818;9.798;2022-10-17T07:17:49;75549.97;;;-140.16;100.00
15442;BME280;7821;48.818;9.798;2022-10-17T07:20:17;75542.09;;;-140.16;100.00
15442;BME280;7821;48.818;9.798;2022-10-17T07:22:44;75526.31;;;-140.16;100.00
15442;BME280;7821;48.818;9.798;2022-10-17T07:25:11;75522.38;;;-140.16;100.00
15442;BME280;7821;48.818;9.798;2022-10-17T07:27:50;75504.63;;;-140.16;100.00
15442;BME280;7821;48.818;9.798;2022-10-17T07:30:19;75496.72;;;-140.16;100.00
15442;BME280;7821;48.818;9.798;2022-10-17T07:32:52;75475.03;;;-140.16;100.00
15442;BME280;7821;48.818;9.798;2022-10-17T07:35:19;75459.28;;;-140.16;100.00
15442;BME280;7821;48.818;9.798;2022-10-17T07:37:46;75439.56;;;-140.16;99.37
15442;BME280;7821;48.818;9.798;2022-10-17T07:40:16;75425.75;;;-140.16;96.90
15442;BME280;7821;48.818;9.798;2022-10-17T07:42:42;75409.97;;;-140.16;95.99
15442;BME280;7821;48.818;9.798;2022-10-17T07:45:09;75392.22;;;-140.16;95.26
15442;BME280;7821;48.818;9.798;2022-10-17T07:47:36;75368.56;;;-140.16;93.38
15442;BME280;7821;48.818;9.798;2022-10-17T07:50:05;75354.78;;;-140.16;93.04
15442;BME280;7821;48.818;9.798;2022-10-17T07:52:32;75340.97;;;-140.16;92.82
15442;BME280;7821;48.818;9.798;2022-10-17T07:54:59;75331.09;;;-140.16;91.29
15442;BME280;7821;48.818;9.798;2022-10-17T07:57:25;75319.28;;;-140.16;89.79
15442;BME280;7821;48.818;9.798;2022-10-17T07:59:51;75303.50;;;-140.16;88.33
15442;BME280;7821;48.818;9.798;2022-10-17T08:02:20;75295.63;;;-140.16;88.66
15442;BME280;7821;48.818;9.798;2022-10-17T08:04:47;75287.72;;;-140.16;88.22
15442;BME280;7821;48.818;9.798;2022-10-17T08:07:14;75275.91;;;-140.16;92.40
15442;BME280;7821;48.818;9.798;2022-10-17T08:09:48;75273.94;;;-140.16;91.91
15442;BME280;7821;48.818;9.798;2022-10-17T08:12:15;75268.03;;;-140.16;90.73
15442;BME280;7821;48.818;9.798;2022-10-17T08:14:42;75258.16;;;-140.16;90.92
15442;BME280;7821;48.818;9.798;2022-10-17T08:17:08;75244.34;;;-140.16;91.03
15442;BME280;7821;48.818;9.798;2022-10-17T08:19:38;75238.44;;;-140.16;90.10
15442;BME280;7821;48.818;9.798;2022-10-17T08:22:06;75224.63;;;-140.16;86.34
15442;BME280;7821;48.818;9.798;2022-10-17T08:24:32;75197.03;;;-140.16;82.32
15442;BME280;7821;48.818;9.798;2022-10-17T08:27:00;75149.72;;;-140.16;75.93
15442;BME280;7821;48.818;9.798;2022-10-17T08:29:26;75131.97;;;-140.16;73.90
15442;BME280;7821;48.818;9.798;2022-10-17T08:31:54;75112.25;;;-140.16;73.14
15442;BME280;7821;48.818;9.798;2022-10-17T08:34:23;75102.41;;;-140.16;74.68
15442;BME280;7821;48.818;9.798;2022-10-17T08:36:50;75080.72;;;-140.16;72.95
15442;BME280;7821;48.818;9.798;2022-10-17T08:39:16;75064.94;;;-140.16;73.17
15442;BME280;7821;48.818;9.798;2022-10-17T08:42:07;75037.34;;;-140.16;72.05
15442;BME280;7821;48.818;9.798;2022-10-17T08:44:42;75017.63;;;-140.16;73.01
15442;BME280;7821;48.818;9.798;2022-10-17T08:47:25;75009.75;;;-140.16;74.19
15442;BME280;7821;48.818;9.798;2022-10-17T08:49:54;74995.94;;;-140.16;74.28
15442;BME280;7821;48.818;9.798;2022-10-17T08:52:34;74980.16;;;-140.16;73.26
15442;BME280;7821;48.818;9.798;2022-10-17T08:55:03;74964.41;;;-140.16;73.19
15442;BME280;7821;48.818;9.798;2022-10-17T08:57:30;74948.63;;;-140.16;71.30
15442;BME280;7821;48.818;9.798;2022-10-17T08:59:56;74934.81;;;-140.16;69.24
15442;BME280;7821;48.818;9.798;2022-10-17T09:02:27;74903.28;;;-140.16;68.69
15442;BME280;7821;48.818;9.798;2022-10-17T09:08:08;74861.88;;;-140.16;69.85
15442;BME280;7821;48.818;9.798;2022-10-17T09:10:45;74842.16;;;-140.16;66.38
15442;BME280;7821;48.818;9.798;2022-10-17T09:18:16;74826.41;;;-140.16;64.60
15442;BME280;7821;48.818;9.798;2022-10-17T09:20:46;74824.41;;;-140.16;64.44
15442;BME280;7821;48.818;9.798;2022-10-17T09:23:16;74814.56;;;-140.16;67.32
15442;BME280;7821;48.818;9.798;2022-10-17T09:25:45;74806.69;;;-140.16;68.22
15442;BME280;7821;48.818;9.798;2022-10-17T09:28:20;74786.97;;;-140.16;66.68
15442;BME280;7821;48.818;9.798;2022-10-17T09:33:40;74727.81;;;-140.16;64.05
15442;BME280;7821;48.818;9.798;2022-10-17T09:36:20;74710.09;;;-140.16;59.30
15442;BME280;7821;48.818;9.798;2022-10-17T09:38:51;74684.44;;;-140.16;60.54
15442;BME280;7821;48.818;9.798;2022-10-17T09:46:39;74605.59;;;-140.16;61.77
15442;BME280;7821;48.818;9.798;2022-10-17T09:49:13;74589.81;;;-140.16;60.81
15442;BME280;7821;48.818;9.798;2022-10-17T09:51:42;74587.84;;;-140.16;60.15
15442;BME280;7821;48.818;9.798;2022-10-17T09:54:18;74595.75;;;-140.16;59.28
15442;BME280;7821;48.818;9.798;2022-10-17T09:59:44;74578.00;;;-140.16;59.51
15442;BME280;7821;48.818;9.798;2022-10-17T10:07:32;74574.06;;;-140.16;55.30
15442;BME280;7821;48.818;9.798;2022-10-17T10:10:01;74552.38;;;-140.16;55.51
15442;BME280;7821;48.818;9.798;2022-10-17T10:12:36;74526.75;;;-140.16;56.01
15442;BME280;7821;48.818;9.798;2022-10-17T10:15:49;74518.88;;;-140.16;55.08
15442;BME280;7821;48.818;9.798;2022-10-17T10:17:49;74483.38;;;-140.16;55.68
15442;BME280;7821;48.818;9.798;2022-10-17T10:20:30;74489.28;;;-140.16;53.62
15442;BME280;7821;48.818;9.798;2022-10-17T10:25:58;74489.28;;;-140.16;52.17
15442;BME280;7821;48.818;9.798;2022-10-17T10:28:30;74483.38;;;-140.16;53.47
15442;BME280;7821;48.818;9.798;2022-10-17T10:31:04;74487.31;;;-140.16;53.44
15442;BME280;7821;48.818;9.798;2022-10-17T10:33:32;74471.56;;;-140.16;50.23
15442;BME280;7821;48.818;9.798;2022-10-17T10:36:03;74475.50;;;-140.16;47.87
15442;BME280;7821;48.818;9.798;2022-10-17T10:38:31;74455.78;;;-140.16;48.87
15442;BME280;7821;48.818;9.798;2022-10-17T10:41:05;74416.34;;;-140.16;46.31
15442;BME280;7821;48.818;9.798;2022-10-17T10:46:15;74396.66;;;-140.16;49.45
15442;BME280;7821;48.818;9.798;2022-10-17T10:48:57;74349.34;;;-140.16;48.74
15442;BME280;7821;48.818;9.798;2022-10-17T10:51:29;74321.75;;;-140.16;48.89
15442;BME280;7821;48.818;9.798;2022-10-17T10:56:39;74288.22;;;-140.16;47.63
15442;BME280;7821;48.818;9.798;2022-10-17T10:59:16;74317.78;;;-140.16;43.70
15442;BME280;7821;48.818;9.798;2022-10-17T11:01:47;74296.13;;;-140.16;44.87
15442;BME280;7821;48.818;9.798;2022-10-17T11:06:43;74351.31;;;-140.16;44.15
15442;BME280;7821;48.818;9.798;2022-10-17T11:12:04;74339.47;;;-140.16;44.78
15442;BME280;7821;48.818;9.798;2022-10-17T11:14:50;74309.91;;;-140.16;43.66
15442;BME280;7821;48.818;9.798;2022-10-17T11:22:51;74282.31;;;-140.16;41.37
15442;BME280;7821;48.818;9.798;2022-10-17T11:25:23;74231.06;;;-140.16;42.84
15442;BME280;7821;48.818;9.798;2022-10-17T11:27:53;74240.91;;;-140.16;42.07
15442;BME280;7821;48.818;9.798;2022-10-17T11:30:20;74262.59;;;-140.16;38.51
15442;BME280;7821;48.818;9.798;2022-10-17T11:32:50;74276.41;;;-140.16;39.83
15442;BME280;7821;48.818;9.798;2022-10-17T11:35:23;74266.53;;;-140.16;38.90
15442;BME280;7821;48.818;9.798;2022-10-17T11:38:11;74258.66;;;-140.16;38.06
15442;BME280;7821;48.818;9.798;2022-10-17T11:40:40;74284.28;;;-140.16;38.05
15442;BME280;7821;48.818;9.798;2022-10-17T11:45:42;74307.94;;;-140.16;41.14
15442;BME280;7821;48.818;9.798;2022-10-17T11:48:16;74294.13;;;-140.16;39.50
15442;BME280;7821;48.818;9.798;2022-10-17T11:50:46;74298.09;;;-140.16;40.30
15442;BME280;7821;48.818;9.798;2022-10-17T11:53:49;74272.47;;;-140.16;39.11
15442;BME280;7821;48.818;9.798;2022-10-17T11:56:17;74262.59;;;-140.16;40.18
15442;BME280;7821;48.818;9.798;2022-10-17T11:58:48;74207.41;;;-140.16;39.75
15442;BME280;7821;48.818;9.798;2022-10-17T12:06:47;74231.06;;;-140.16;36.68
15442;BME280;7821;48.818;9.798;2022-10-17T12:12:06;74173.91;;;-140.16;37.54
15442;BME280;7821;48.818;9.798;2022-10-17T12:14:40;74189.66;;;-140.16;34.70
15442;BME280;7821;48.818;9.798;2022-10-17T12:19:50;74158.13;;;-140.16;35.94
15442;BME280;7821;48.818;9.798;2022-10-17T12:22:20;74120.69;;;-140.16;36.95
15442;BME280;7821;48.818;9.798;2022-10-17T12:24:55;74166.03;;;-140.16;35.00
15442;BME280;7821;48.818;9.798;2022-10-17T12:27:37;74168.00;;;-140.16;35.30
15442;BME280;7821;48.818;9.798;2022-10-17T12:30:04;74168.00;;;-140.16;33.56
15442;BME280;7821;48.818;9.798;2022-10-17T12:32:32;74179.81;;;-140.16;35.71
15442;BME280;7821;48.818;9.798;2022-10-17T12:35:17;74168.00;;;-140.16;34.15
15442;BME280;7821;48.818;9.798;2022-10-17T12:45:48;74166.03;;;-140.16;33.58
15442;BME280;7821;48.818;9.798;2022-10-17T12:51:08;74156.16;;;-140.16;32.54
15442;BME280;7821;48.818;9.798;2022-10-17T12:53:57;74146.31;;;-140.16;33.05
15442;BME280;7821;48.818;9.798;2022-10-17T12:56:37;74171.94;;;-140.16;33.98
15442;BME280;7821;48.818;9.798;2022-10-17T12:59:06;74150.25;;;-140.16;33.17
15442;BME280;7821;48.818;9.798;2022-10-17T13:01:34;74160.09;;;-140.16;32.94
15442;BME280;7821;48.818;9.798;2022-10-17T13:04:02;74142.38;;;-140.16;33.76
15442;BME280;7821;48.818;9.798;2022-10-17T13:06:31;74130.53;;;-140.16;33.69
15442;BME280;7821;48.818;9.798;2022-10-17T13:09:04;74175.88;;;-140.16;31.97
15442;BME280;7821;48.818;9.798;2022-10-17T13:11:32;74193.63;;;-140.16;32.49
15442;BME280;7821;48.818;9.798;2022-10-17T13:13:59;74193.63;;;-140.16;33.64
15442;BME280;7821;48.818;9.798;2022-10-17T13:16:32;74183.75;;;-140.16;32.88
15442;BME280;7821;48.818;9.798;2022-10-17T13:19:02;74191.63;;;-140.16;33.08
15442;BME280;7821;48.818;9.798;2022-10-17T13:21:29;74171.94;;;-140.16;33.31
15442;BME280;7821;48.818;9.798;2022-10-17T13:23:55;74199.53;;;-140.16;33.35
15442;BME280;7821;48.818;9.798;2022-10-17T13:26:26;74189.66;;;-140.16;33.88
15442;BME280;7821;48.818;9.798;2022-10-17T13:29:10;74227.13;;;-140.16;33.52
15442;BME280;7821;48.818;9.798;2022-10-17T13:31:38;74203.47;;;-140.16;34.77
15442;BME280;7821;48.818;9.798;2022-10-17T13:34:05;74185.72;;;-140.16;34.50
15442;BME280;7821;48.818;9.798;2022-10-17T13:36:33;74175.88;;;-140.16;34.98
15442;BME280;7821;48.818;9.798;2022-10-17T13:39:04;74183.75;;;-140.16;34.54
15442;BME280;7821;48.818;9.798;2022-10-17T13:41:32;74187.69;;;-140.16;34.54
15442;BME280;7821;48.818;9.798;2022-10-17T13:44:02;74169.97;;;-140.16;34.38
15442;BME280;7821;48.818;9.798;2022-10-17T13:46:30;74169.97;;;-140.16;34.09
15442;BME280;7821;48.818;9.798;2022-10-17T13:49:17;74191.63;;;-140.16;35.25
15442;BME280;7821;48.818;9.798;2022-10-17T13:51:47;74166.03;;;-140.16;36.12
15442;BME280;7821;48.818;9.798;2022-10-17T13:54:33;74169.97;;;-140.16;34.84
15442;BME280;7821;48.818;9.798;2022-10-17T13:57:00;74177.84;;;-140.16;34.41
15442;BME280;7821;48.818;9.798;2022-10-17T13:59:37;74191.63;;;-140.16;35.66
15442;BME280;7821;48.818;9.798;2022-10-17T14:02:05;74175.88;;;-140.16;34.11
15442;BME280;7821;48.818;9.798;2022-10-17T14:04:37;74209.38;;;-140.16;33.55
15442;BME280;7821;48.818;9.798;2022-10-17T14:07:25;74235.00;;;-140.16;34.94
15442;BME280;7821;48.818;9.798;2022-10-17T14:09:59;74264.56;;;-140.16;35.14
15442;BME280;7821;48.818;9.798;2022-10-17T14:12:25;74286.25;;;-140.16;35.26
15442;BME280;7821;48.818;9.798;2022-10-17T14:14:52;74282.31;;;-140.16;34.48
15442;BME280;7821;48.818;9.798;2022-10-17T14:17:36;74258.66;;;-140.16;36.25
15442;BME280;7821;48.818;9.798;2022-10-17T14:20:03;74238.94;;;-140.16;35.37
15442;BME280;7821;48.818;9.798;2022-10-17T14:22:50;74248.81;;;-140.16;35.43
15442;BME280;7821;48.818;9.798;2022-10-17T14:25:38;74244.88;;;-140.16;36.61
15442;BME280;7821;48.818;9.798;2022-10-17T14:30:39;74254.72;;;-140.16;36.06
15442;BME280;7821;48.818;9.798;2022-10-17T14:33:27;74238.94;;;-140.16;36.29
15442;BME280;7821;48.818;9.798;2022-10-17T14:35:55;74272.47;;;-140.16;35.37